Herbert C Jackson — WL3972 — position and weather

sailwx.info

Track history (hours):
 
Tides and Currents Weather Stations Pressure Air Temp Water Temp Dewpoint Dewpoint Depression Visibility Wind Speed Wind Dir Waves Ship Positions

Herbert C Jackson

Owner: THE INTERLAKE STEAMSHIP COMPANY, Middleburg Heights, OH. More information available from US FCC via Universal Licensing System and Coast Guard Vessel Documentation Center.

Last reported at 2016-Dec-05 03:00 UTC. Time now 2016-Dec-05 04:27 UTC.
Position N 47°24' W 087°30'.

Length 239 m; draft 6.4 m.

Type: Cargo ship. MMSI: 366904930.

Wind from 200 at 24 knots

Barometer 1006.1 mb
Air temperature 1.2 ° C
Water temperature 5.2 ° C

Date/timePositionNaut miles runAvg speedWind from/ knotsBaromVisibWave heightAir tempDewpointWater temp
2016-Dec-05 03:00N 47°24' W 087°30'1212.2 200 / 241006.1 1.2 5.2
2016-Dec-05 02:00N 47°24' W 087°12'1413.6 180 / 261007.8 1.1 5.4
2016-Dec-05 01:00N 47°18' W 086°54'1413.6 190 / 231009.1 1.2 5.5
2016-Dec-05 00:00N 47°12' W 086°36'6012.0 180 / 191010.5 1.2 6.0
2016-Dec-04 19:00N 46°54' W 085°12'1010.2 130 / 191016.610.8 2.4 6.3
2016-Dec-04 18:00N 46°48' W 085°00'1514.6 140 / 251017.9 1.8 6.6
2016-Dec-04 17:00N 46°36' W 084°48'1010.2 130 / 201019.3 0.7 7.2
2016-Dec-04 16:00N 46°30' W 084°36'8 8.3 110 / 151021.0 -0.2 6.8
2016-Dec-04 15:00N 46°30' W 084°24'4 4.1 100 / 61022.0 -0.5 6.3
2016-Dec-04 14:00N 46°30' W 084°18'6 6.0 100 / 121022.1 -0.8 6.2
2016-Dec-04 13:00N 46°24' W 084°18'1010.2 100 / 101022.1 -0.7 6.2
2016-Dec-04 12:00N 46°18' W 084°06'6 6.0 100 / 121022.5 -0.7 6.0
2016-Dec-04 11:00N 46°12' W 084°06'7 7.3 120 / 101022.8 0.5 6.0
2016-Dec-04 10:00N 46°06' W 084°00'1212.0 080 / 111023.2 1.3 5.5
2016-Dec-04 09:00N 45°54' W 084°00'711.1 100 / 201021.8 2.5 5.4
2016-Dec-04 08:22N 45°51' W 084°09'3 9.3
2016-Dec-04 08:00N 45°48' W 084°12'818.3 130 / 61023.2 3.3 5.1
2016-Dec-04 07:34N 45°51' W 084°23'6 9.9
2016-Dec-04 07:00N 45°48' W 084°30'716.2 090 / 81023.2 2.8 5.3
2016-Dec-04 06:34N 45°50' W 084°40'610.5
2016-Dec-04 06:00N 45°48' W 084°48'614.0 110 / 101022.8 2.9 6.3
2016-Dec-04 05:34N 45°50' W 084°56'712.2
2016-Dec-04 05:00N 45°48' W 085°06'3 5.8 080 / 141022.5 2.8 6.9
2016-Dec-04 04:33N 45°46' W 085°09'5 8.7
2016-Dec-04 04:00N 45°42' W 085°12'716.6 100 / 131022.1 3.2 8.3
2016-Dec-04 03:33N 45°37' W 085°19'713.2
2016-Dec-04 03:00N 45°30' W 085°24'511.6 120 / 81023.5 2.7 8.5
2016-Dec-04 02:34N 45°27' W 085°29'5 9.5
2016-Dec-04 02:00N 45°24' W 085°36'818.4 160 / 31023.5 3.1 8.7
2016-Dec-04 01:33N 45°16' W 085°40'5 8.4
2016-Dec-04 01:00N 45°12' W 085°42'818.8 220 / 41023.5 1.9 9.4
2016-Dec-04 00:34N 45°06' W 085°50'712.2
2016-Dec-04 00:00N 45°00' W 085°54'1414.1 270 / 181023.8 2.4 8.6
2016-Dec-03 23:00N 44°54' W 086°12'1312.7 240 / 161024.5 2.6 7.9
2016-Dec-03 22:00N 44°42' W 086°18'7 7.4 270 / 171024.8 2.1 8.7
2016-Dec-03 21:00N 44°36' W 086°24'1312.7 250 / 181025.2 2.1 9.1
2016-Dec-03 20:00N 44°24' W 086°30'1918.5 260 / 181024.8 2.3 8.8
2016-Dec-03 19:00N 44°06' W 086°36'1212.0 250 / 141024.8 2.2 7.8
2016-Dec-03 18:00N 43°54' W 086°36'1212.0 250 / 71024.2 1.8 7.3
2016-Dec-03 17:00N 43°42' W 086°36'1212.0 260 / 121024.8 1.3 7.7
2016-Dec-03 16:00N 43°30' W 086°36'1312.8 260 / 191025.5 1.4 8.2
2016-Dec-03 15:00N 43°18' W 086°30'1110.6 260 / 151025.9 1.5 8.4
2016-Dec-03 14:00N 43°12' W 086°18'0 0.0 270 / 121025.9 2.2 5.9
2016-Dec-03 13:00N 43°12' W 086°18'0 0.0 280 / 61026.2 2.3 6.5
2016-Dec-03 12:00N 43°12' W 086°18'0 0.0 280 / 61025.5 2.2 6.4
2016-Dec-03 11:00N 43°12' W 086°18'0 0.0 270 / 71025.2 2.2 6.8
2016-Dec-03 10:00N 43°12' W 086°18'0 0.0 260 / 81025.2 2.4 6.9
2016-Dec-03 09:00N 43°12' W 086°18'0 0.0 270 / 91025.2 2.3 6.8
2016-Dec-03 08:00N 43°12' W 086°18'0 0.0 300 / 91025.2 2.4 6.6
2016-Dec-03 07:00N 43°12' W 086°18'0 0.0 290 / 71025.2 2.6 6.4
2016-Dec-03 06:00N 43°12' W 086°18'4 4.4 250 / 111025.2 2.9 6.2
2016-Dec-03 05:00N 43°12' W 086°24'7 7.4 270 / 51025.2 2.9 8.8
2016-Dec-03 04:00N 43°18' W 086°30'1312.8 280 / 41024.8 2.7 8.5
2016-Dec-03 03:00N 43°30' W 086°36'1212.0 290 / 81024.5 2.8 8.2
2016-Dec-03 02:00N 43°42' W 086°36'1212.0 290 / 111023.8 3.2 7.8
2016-Dec-03 01:00N 43°54' W 086°36'1212.0 280 / 121023.5 3.1 7.4
2016-Dec-03 00:00N 44°06' W 086°36'1312.7 280 / 131022.5 3.1 8.4
2016-Dec-02 23:00N 44°18' W 086°30'1212.0 280 / 131021.8 3.3 8.8
2016-Dec-02 22:00N 44°30' W 086°30'1312.7 290 / 151021.1 3.4 9.2
2016-Dec-02 21:00N 44°42' W 086°24'1312.7 300 / 171020.4 3.4 9.0
2016-Dec-02 20:00N 44°54' W 086°18'1212.0 300 / 171019.8 2.9 8.2
2016-Dec-02 19:00N 45°06' W 086°18'1312.7 300 / 191018.8 3.0 9.1
2016-Dec-02 18:00N 45°18' W 086°12'510.4 300 / 171018.127.0 3.1 8.5
2016-Dec-02 17:30N 45°23' W 086°09'815.0
2016-Dec-02 17:00N 45°30' W 086°06'1312.7 300 / 171017.4 2.6 8.6
2016-Dec-02 16:00N 45°42' W 086°00'6 8.6 290 / 201016.4 2.4 8.3
2016-Dec-02 15:15N 45°48' W 085°57'2 7.1
2016-Dec-02 15:00N 45°48' W 085°54'1212.0 300 / 201015.0 1.8 7.4
2016-Dec-02 14:00N 46°00' W 085°54'0 0.0 280 / 61015.0 -0.0 5.1
2016-Dec-02 13:00N 46°00' W 085°54'0 0.0 280 / 71014.0 -0.4 5.2
2016-Dec-02 12:00N 46°00' W 085°54'0 0.0 290 / 91013.3 -0.4 5.3
2016-Dec-02 11:00N 46°00' W 085°54'0 0.0 280 / 121013.0 -0.3 5.4
2016-Dec-02 10:00N 46°00' W 085°54'0 0.0 270 / 121012.3 -0.3 5.4
2016-Dec-02 09:00N 46°00' W 085°54'0 0.0 270 / 101012.0 -0.1 5.6
2016-Dec-02 08:00N 46°00' W 085°54'0 0.0 250 / 91011.6 -0.5 5.5
2016-Dec-02 07:00N 46°00' W 085°54'0 0.0 260 / 151010.6 -0.4 5.9
2016-Dec-02 06:00N 46°00' W 085°54'0 0.0 260 / 101010.3 -0.5 5.8
2016-Dec-02 05:00N 46°00' W 085°54'0 0.0 270 / 91009.6 -0.3 5.9
2016-Dec-02 04:00N 46°00' W 085°54'0 0.0 270 / 91009.3 -0.4 6.0
2016-Dec-02 03:00N 46°00' W 085°54'0 0.0 260 / 81008.9 -0.1 6.0
2016-Dec-02 02:00N 46°00' W 085°54'0 0.0 260 / 81008.6 0.2 6.0
2016-Dec-02 01:00N 46°00' W 085°54'0 0.0 280 / 61008.3 0.5 6.0
2016-Dec-02 00:00N 46°00' W 085°54'4 4.5 280 / 131006.9 1.2 5.9
2016-Dec-01 23:10N 45°56' W 085°53'214.9
2016-Dec-01 23:00N 45°54' W 085°54'0 0.0 290 / 191006.2 1.6 7.0
2016-Dec-01 22:00N 45°54' W 085°54'0 0.0 300 / 191005.2 2.2 7.1
2016-Dec-01 21:00N 45°54' W 085°54'0 0.0 300 / 241003.9 2.3 7.0
2016-Dec-01 20:00N 45°54' W 085°54'0 0.0 310 / 221003.2 3.0 7.0
2016-Dec-01 19:00N 45°54' W 085°54'0 0.0 310 / 211002.2 2.9 7.1
2016-Dec-01 18:00N 45°54' W 085°54'0 0.0 320 / 261000.8 2.9 6.8
2016-Dec-01 17:00N 45°54' W 085°54'0 0.0 310 / 231000.5 3.6 6.8
2016-Dec-01 16:00N 45°54' W 085°54'7 7.3 300 / 29999.4 3.6 6.7
2016-Dec-01 15:00N 45°48' W 086°00'1010.3 300 / 30999.8 3.9 8.1
2016-Dec-01 14:00N 45°42' W 086°12'1413.9 280 / 271000.1 3.8 8.1
2016-Dec-01 13:00N 45°36' W 086°30'1010.3 280 / 241000.5 4.2 8.4
2016-Dec-01 12:00N 45°30' W 086°42'1414.0 300 / 241000.5 4.5 7.6
2016-Dec-01 11:00N 45°24' W 087°00'1010.3 290 / 231000.1 4.2 7.4
2016-Dec-01 10:00N 45°18' W 087°12'1010.4 300 / 221000.1 3.4 7.6
2016-Dec-01 09:00N 45°12' W 087°24'1312.7 270 / 21999.8 3.3 7.9
2016-Dec-01 08:00N 45°00' W 087°30'1514.7 280 / 161000.1 3.4 7.5
2016-Dec-01 07:00N 44°48' W 087°42'1010.4 280 / 161000.1 3.3 6.9
2016-Dec-01 06:00N 44°42' W 087°54'7 7.4 260 / 141000.1 2.7 5.7
2016-Dec-01 05:00N 44°36' W 088°00'6 6.0 250 / 101000.1 2.6 5.6
2016-Dec-01 04:00N 44°30' W 088°00'0 0.0 250 / 6999.8 2.5 6.0
2016-Dec-01 03:00N 44°30' W 088°00'0 0.0 220 / 51000.1 2.6 6.0
2016-Dec-01 02:00N 44°30' W 088°00'0 0.0 210 / 31000.1 3.0 6.4
2016-Dec-01 01:00N 44°30' W 088°00'0 0.0 240 / 51000.1 3.2 6.4
2016-Dec-01 00:00N 44°30' W 088°00'0 0.0 210 / 31000.1 3.4 6.2
2016-Nov-30 23:00N 44°30' W 088°00'7 7.4 220 / 51000.1 3.7 5.9
2016-Nov-30 22:00N 44°36' W 087°54'7 7.4 240 / 7999.4 4.1 5.6
2016-Nov-30 21:00N 44°42' W 087°48'1312.7 210 / 10998.8 4.5 6.1
2016-Nov-30 20:00N 44°54' W 087°42'2211.0 190 / 12998.4 4.3 7.3
2016-Nov-30 18:00N 45°12' W 087°24'1010.4 220 / 6998.4 3.9 7.9
2016-Nov-30 17:00N 45°18' W 087°12'1414.0 240 / 13998.4 5.1 7.7
2016-Nov-30 16:00N 45°24' W 086°54'1010.3 220 / 13998.8 6.1 7.4
2016-Nov-30 15:00N 45°30' W 086°42'1414.0 280 / 7998.8 6.9 7.5
2016-Nov-30 14:00N 45°36' W 086°24'1010.3 170 / 15998.8 9.1 8.5
2016-Nov-30 13:00N 45°42' W 086°12'1012.0 150 / 16998.8 9.1 8.3
2016-Nov-30 12:11N 45°49' W 086°02'2 8.7
2016-Nov-30 12:00N 45°48' W 086°00'716.7 150 / 15998.8 9.1 8.0
2016-Nov-30 11:33N 45°54' W 085°54'611.2
2016-Nov-30 11:00N 46°00' W 085°54'0 0.0 050 / 9999.8 5.6 6.0
2016-Nov-30 10:00N 46°00' W 085°54'0 0.0 050 / 41000.1 5.5 6.2
2016-Nov-30 09:00N 46°00' W 085°54'0 0.0 030 / 31000.5 5.6 6.0
2016-Nov-30 08:00N 46°00' W 085°54'2 3.2 040 / 31000.8 5.3 6.0
2016-Nov-30 07:15N 45°58' W 085°52'2 8.9
2016-Nov-30 07:00N 46°00' W 085°54'3 8.0 040 / 21001.1 4.8 6.5
2016-Nov-30 06:33N 45°57' W 085°53'4 7.4
2016-Nov-30 06:00N 45°54' W 085°48'715.2 170 / 21001.1 8.7 7.2
2016-Nov-30 05:33N 45°54' W 085°38'610.4
2016-Nov-30 05:00N 45°54' W 085°30'613.6 160 / 81001.5 8.5 7.2
2016-Nov-30 04:33N 45°53' W 085°22'711.8
2016-Nov-30 04:00N 45°54' W 085°12'613.1 150 / 81001.5 8.5 7.0
2016-Nov-30 03:33N 45°52' W 085°04'814.6
2016-Nov-30 03:00N 45°48' W 084°54'510.5 150 / 81001.5 8.1 7.0
2016-Nov-30 02:33N 45°49' W 084°48'4 7.6
2016-Nov-30 02:00N 45°48' W 084°42'716.9 150 / 81001.8 8.9 6.6
2016-Nov-30 01:33N 45°51' W 084°33'611.5
2016-Nov-30 01:00N 45°54' W 084°24'1312.5 170 / 61001.5 8.7 5.1
2016-Nov-30 00:00N 45°54' W 084°06'1010.3 200 / 101000.8 8.3 5.7
2016-Nov-29 23:00N 46°00' W 083°54'0 0.0 160 / 71000.5 8.2 5.8
2016-Nov-29 22:00N 46°00' W 083°54'0 0.0 190 / 4999.8 9.2 5.4
2016-Nov-29 21:00N 46°00' W 083°54'0 0.0 220 / 11999.1 10.5 6.2
2016-Nov-29 20:00N 46°00' W 083°54'0 0.0 210 / 16998.4 10.5 5.9
2016-Nov-29 19:00N 46°00' W 083°54'0 0.0 200 / 6997.8 10.6 6.0
2016-Nov-29 18:00N 46°00' W 083°54'0 0.0 190 / 11997.4 10.1 6.1
2016-Nov-29 17:00N 46°00' W 083°54'0 0.0 190 / 18996.4 9.3 5.9
2016-Nov-29 16:00N 46°00' W 083°54'0 0.0 170 / 14995.7 9.0 6.2
2016-Nov-29 15:00N 46°00' W 083°54'0 0.0 170 / 16995.0 8.6 6.4
2016-Nov-29 14:00N 46°00' W 083°54'0 0.0 180 / 23993.4 9.1 5.5
2016-Nov-29 13:00N 46°00' W 083°54'0 0.0 160 / 21991.7 8.5 5.0
2016-Nov-29 12:00N 46°00' W 083°54'0 0.0 150 / 17991.0 8.6 5.1
2016-Nov-29 11:00N 46°00' W 083°54'0 0.0 170 / 21989.6 8.6 5.1
2016-Nov-29 10:00N 46°00' W 083°54'0 0.0 130 / 27988.3 8.0 5.1
2016-Nov-29 09:00N 46°00' W 083°54'0 0.0 120 / 29989.0 7.3 5.0
2016-Nov-29 08:00N 46°00' W 083°54'0 0.0 110 / 33989.0 7.3 4.9
2016-Nov-29 07:00N 46°00' W 083°54'0 0.0 120 / 30991.3 7.0 5.1
2016-Nov-29 06:00N 46°00' W 083°54'0 0.0 130 / 28992.7 7.1 5.2
2016-Nov-29 05:00N 46°00' W 083°54'0 0.0 110 / 29994.7 6.6 5.2
2016-Nov-29 04:00N 46°00' W 083°54'0 0.0 120 / 26995.7 6.4 5.2
2016-Nov-29 03:00N 46°00' W 083°54'0 0.0 110 / 28997.1 6.7 5.2
2016-Nov-29 02:00N 46°00' W 083°54'0 0.0 120 / 27998.1 6.9 5.2
2016-Nov-29 01:00N 46°00' W 083°54'0 0.0 120 / 251000.1 6.8 5.2
2016-Nov-29 00:00N 46°00' W 083°54'0 0.0 120 / 241000.8 6.9 5.2
2016-Nov-28 23:00N 46°00' W 083°54'0 0.0 120 / 261001.5 7.4 5.2
2016-Nov-28 22:00N 46°00' W 083°54'0 0.0 110 / 251003.2 7.1 5.3
2016-Nov-28 21:00N 46°00' W 083°54'0 0.0 110 / 221002.8 7.3 5.3
2016-Nov-28 20:00N 46°00' W 083°54'0 0.0 120 / 201003.2 7.0 5.4
2016-Nov-28 19:00N 46°00' W 083°54'0 0.0 120 / 241003.9 7.0 5.5
2016-Nov-28 18:00N 46°00' W 083°54'0 0.0 120 / 231004.2 6.9 5.6
2016-Nov-28 17:00N 46°00' W 083°54'0 0.0 120 / 241005.2 7.5 5.7
2016-Nov-28 16:00N 46°00' W 083°54'0 0.0 120 / 211006.6 6.7 5.7
2016-Nov-28 15:00N 46°00' W 083°54'0 0.0 130 / 251006.9 6.9 5.8
2016-Nov-28 14:00N 46°00' W 083°54'0 0.0 130 / 221007.9 6.8 5.8
2016-Nov-28 13:00N 46°00' W 083°54'1010.3 120 / 221007.9 6.5 5.2
2016-Nov-28 12:00N 45°54' W 083°42'1413.9 130 / 191009.6 6.5 4.9
2016-Nov-28 11:00N 45°48' W 083°24'7 7.3 130 / 191010.3 7.0 6.2
2016-Nov-28 10:00N 45°54' W 083°18'4 4.2 130 / 261009.6 6.6 6.8
2016-Nov-28 09:00N 45°54' W 083°12'0 0.0 140 / 71011.6 6.0 6.6
2016-Nov-28 08:00N 45°54' W 083°12'0 0.0 130 / 41012.3 5.8 6.7
2016-Nov-28 07:00N 45°54' W 083°12'0 0.0 160 / 131013.0 6.1 6.6
2016-Nov-28 06:00N 45°54' W 083°12'0 0.0 140 / 111013.7 6.0 6.7
2016-Nov-28 05:00N 45°54' W 083°12'0 0.0 150 / 121014.0 6.0 6.8
2016-Nov-28 04:00N 45°54' W 083°12'0 0.0 140 / 51014.7 5.7 6.5
2016-Nov-28 03:00N 45°54' W 083°12'6 3.0 170 / 31015.0 5.6 6.5
2016-Nov-28 01:00N 46°00' W 083°12'4 4.2 100 / 111015.7 5.4 7.4
2016-Nov-28 00:00N 46°00' W 083°18'0 0.0 120 / 121015.7 5.3 7.4
2016-Nov-27 23:00N 46°00' W 083°18'0 0.0 130 / 111016.4 5.1 7.4
2016-Nov-27 22:00N 46°00' W 083°18'0 0.0 130 / 111016.4 5.8 7.4
2016-Nov-27 21:00N 46°00' W 083°18'0 0.0 120 / 91016.7 5.8 7.5
2016-Nov-27 20:00N 46°00' W 083°18'0 0.0 150 / 121016.7 5.6 7.4
2016-Nov-27 19:00N 46°00' W 083°18'0 0.0 150 / 131016.7 5.5 7.4
2016-Nov-27 18:00N 46°00' W 083°18'0 0.0 160 / 151017.1 5.5 7.4
2016-Nov-27 17:00N 46°00' W 083°18'0 0.0 150 / 151017.4 5.0 7.4
2016-Nov-27 16:00N 46°00' W 083°18'0 0.0 130 / 131018.4 4.3 7.3
2016-Nov-27 15:00N 46°00' W 083°18'7 7.3 120 / 131018.1 3.8 7.3
2016-Nov-27 14:00N 45°54' W 083°12'6 6.0 140 / 101018.4 3.2 7.4
2016-Nov-27 13:00N 45°48' W 083°12'1212.0 100 / 81018.4 4.4 6.0
2016-Nov-27 12:00N 45°36' W 083°12'1312.7 260 / 71018.4 4.4 6.5
2016-Nov-27 11:00N 45°24' W 083°06'3712.3 260 / 151018.4 4.4 6.6
2016-Nov-27 08:00N 44°48' W 082°54'1312.7 280 / 161019.1 4.8 7.1
2016-Nov-27 07:00N 44°36' W 082°48'1312.7 270 / 251019.1 4.2 7.7
2016-Nov-27 06:00N 44°24' W 082°42'2412.2 270 / 241019.8 3.9 7.5
2016-Nov-27 04:00N 44°00' W 082°36'1312.8 250 / 201020.4 3.8 7.4
2016-Nov-27 03:00N 43°48' W 082°30'6 6.0 270 / 201020.4 3.2 7.5
2016-Nov-27 02:00N 43°42' W 082°30'1212.0 270 / 221020.8 3.3 8.0
2016-Nov-27 01:00N 43°30' W 082°30'1312.8 270 / 221020.8 3.4 7.9
2016-Nov-27 00:00N 43°18' W 082°24'1212.0 260 / 251021.1 3.8 8.2
2016-Nov-26 23:00N 43°06' W 082°24'1312.8 260 / 151022.1 3.8 8.1
2016-Nov-26 22:00N 42°54' W 082°30'6 6.0 270 / 121022.8 4.1 7.9
2016-Nov-26 21:00N 42°48' W 082°30'1212.0 270 / 111022.8 4.7 7.7
2016-Nov-26 20:00N 42°36' W 082°30'1110.7 310 / 91022.8 5.0 7.4
2016-Nov-26 19:00N 42°30' W 082°42'1110.7 300 / 131022.6 4.8 7.0
2016-Nov-26 18:00N 42°24' W 082°54'1110.7 310 / 151023.3 4.7 6.0
2016-Nov-26 17:00N 42°18' W 083°06'0 0.0 310 / 161024.0 4.5 5.4
2016-Nov-26 16:00N 42°18' W 083°06'0 0.0 300 / 91024.7 4.6 11.0
2016-Nov-26 15:00N 42°18' W 083°06'4 4.4 280 / 101024.7 4.9 11.1
2016-Nov-26 14:00N 42°18' W 083°12'0 0.0 300 / 101024.3 4.4 10.9
2016-Nov-26 13:00N 42°18' W 083°12'0 0.0 280 / 101024.3 3.9 12.2
2016-Nov-26 12:00N 42°18' W 083°12'0 0.0 250 / 91024.0 3.9 11.7
2016-Nov-26 11:00N 42°18' W 083°12'0 0.0 260 / 101023.6 3.9 10.1
2016-Nov-26 10:00N 42°18' W 083°12'0 0.0 260 / 61024.0 3.9 9.5
2016-Nov-26 09:00N 42°18' W 083°12'4 4.4 300 / 81023.6 4.5 10.7
2016-Nov-26 08:00N 42°18' W 083°06'4 4.4 240 / 81023.3 4.1 6.6
2016-Nov-26 07:00N 42°18' W 083°00'1110.7 240 / 141022.6 4.3 5.3
2016-Nov-26 06:00N 42°24' W 082°48'1110.7 250 / 141021.9 4.3 6.2
2016-Nov-26 05:00N 42°30' W 082°36'7 7.5 250 / 131021.9 4.4 7.3
2016-Nov-26 04:00N 42°36' W 082°30'1212.0 230 / 41022.8 3.7 8.0
2016-Nov-26 03:00N 42°48' W 082°30'1312.8 230 / 41023.2 3.5 7.9
2016-Nov-26 02:00N 43°00' W 082°24'6 6.0 240 / 41023.2 3.2 7.8
2016-Nov-26 01:00N 43°06' W 082°24'1212.0 260 / 141022.8 4.1 8.4
2016-Nov-26 00:00N 43°18' W 082°24'1212.0 260 / 151022.1 4.6 8.6
2016-Nov-25 23:00N 43°30' W 082°24'1312.8 240 / 161021.5 5.4 8.3
2016-Nov-25 22:00N 43°42' W 082°30'1212.0 250 / 121021.1 5.7 8.3
2016-Nov-25 21:00N 43°54' W 082°30'1312.8 250 / 141021.1 5.7 7.8
2016-Nov-25 20:00N 44°06' W 082°36'1312.7 250 / 151020.8 5.6 7.9
2016-Nov-25 19:00N 44°18' W 082°42'7 7.4 260 / 111021.1 5.4 7.5
2016-Nov-25 18:00N 44°24' W 082°48'6 6.0 270 / 131020.8 5.1 7.3
2016-Nov-25 17:00N 44°30' W 082°48'0 0.0 260 / 141021.1 5.0 7.3
2016-Nov-25 16:00N 44°30' W 082°48'6 6.0 290 / 121021.8 5.1 7.3
2016-Nov-25 15:00N 44°36' W 082°48'1312.7 300 / 141021.5 5.3 7.3
2016-Nov-25 14:00N 44°48' W 082°54'1312.7 330 / 121021.1 5.3 7.2
2016-Nov-25 13:00N 45°00' W 083°00'1312.7 350 / 131020.8 4.6 8.1
2016-Nov-25 12:00N 45°12' W 083°06'1514.7 360 / 141020.4 4.4 7.3
2016-Nov-25 11:00N 45°24' W 083°18'1514.7 350 / 121020.4 3.9 7.6
2016-Nov-25 10:00N 45°36' W 083°30'1010.3 010 / 91020.4 3.6 6.2
2016-Nov-25 09:00N 45°42' W 083°42'1312.7 020 / 101020.4 3.1 6.3
2016-Nov-25 08:00N 45°54' W 083°48'7 7.3 040 / 131020.4 2.2 4.9
2016-Nov-25 07:00N 46°00' W 083°54'1514.6 050 / 111020.8 2.3 4.2
2016-Nov-25 06:00N 46°12' W 084°06'7 7.3 030 / 51020.8 0.9 4.7
2016-Nov-25 05:00N 46°18' W 084°12'6 6.0 030 / 31021.5 0.6 5.2
2016-Nov-25 04:00N 46°24' W 084°12'7 7.3 080 / 51021.5 1.0 6.0
2016-Nov-25 03:00N 46°30' W 084°18'   060 / 71021.1 1.0 6.0
Track history (hours):
 
Tides and Currents Weather Stations Pressure Air Temp Water Temp Dewpoint Dewpoint Depression Visibility Wind Speed Wind Dir Waves Ship Positions

Herbert C Jackson

Owner: THE INTERLAKE STEAMSHIP COMPANY, Middleburg Heights, OH. More information available from US FCC via Universal Licensing System and Coast Guard Vessel Documentation Center.

Last reported at 2016-Dec-05 03:00 UTC. Time now 2016-Dec-05 04:27 UTC.
Position N 47°24' W 087°30'.

Length 239 m; draft 6.4 m.

Type: Cargo ship. MMSI: 366904930.

Wind from 200 at 24 knots

Barometer 1006.1 mb
Air temperature 1.2 ° C
Water temperature 5.2 ° C

Date/timePositionNaut miles runAvg speedWind from/ knotsBaromVisibWave heightAir tempDewpointWater temp
2016-Dec-05 03:00N 47°24' W 087°30'1212.2 200 / 241006.1 1.2 5.2
2016-Dec-05 02:00N 47°24' W 087°12'1413.6 180 / 261007.8 1.1 5.4
2016-Dec-05 01:00N 47°18' W 086°54'1413.6 190 / 231009.1 1.2 5.5
2016-Dec-05 00:00N 47°12' W 086°36'6012.0 180 / 191010.5 1.2 6.0
2016-Dec-04 19:00N 46°54' W 085°12'1010.2 130 / 191016.610.8 2.4 6.3
2016-Dec-04 18:00N 46°48' W 085°00'1514.6 140 / 251017.9 1.8 6.6
2016-Dec-04 17:00N 46°36' W 084°48'1010.2 130 / 201019.3 0.7 7.2
2016-Dec-04 16:00N 46°30' W 084°36'8 8.3 110 / 151021.0 -0.2 6.8
2016-Dec-04 15:00N 46°30' W 084°24'4 4.1 100 / 61022.0 -0.5 6.3
2016-Dec-04 14:00N 46°30' W 084°18'6 6.0 100 / 121022.1 -0.8 6.2
2016-Dec-04 13:00N 46°24' W 084°18'1010.2 100 / 101022.1 -0.7 6.2
2016-Dec-04 12:00N 46°18' W 084°06'6 6.0 100 / 121022.5 -0.7 6.0
2016-Dec-04 11:00N 46°12' W 084°06'7 7.3 120 / 101022.8 0.5 6.0
2016-Dec-04 10:00N 46°06' W 084°00'1212.0 080 / 111023.2 1.3 5.5
2016-Dec-04 09:00N 45°54' W 084°00'711.1 100 / 201021.8 2.5 5.4
2016-Dec-04 08:22N 45°51' W 084°09'3 9.3
2016-Dec-04 08:00N 45°48' W 084°12'818.3 130 / 61023.2 3.3 5.1
2016-Dec-04 07:34N 45°51' W 084°23'6 9.9
2016-Dec-04 07:00N 45°48' W 084°30'716.2 090 / 81023.2 2.8 5.3
2016-Dec-04 06:34N 45°50' W 084°40'610.5
2016-Dec-04 06:00N 45°48' W 084°48'614.0 110 / 101022.8 2.9 6.3
2016-Dec-04 05:34N 45°50' W 084°56'712.2
2016-Dec-04 05:00N 45°48' W 085°06'3 5.8 080 / 141022.5 2.8 6.9
2016-Dec-04 04:33N 45°46' W 085°09'5 8.7
2016-Dec-04 04:00N 45°42' W 085°12'716.6 100 / 131022.1 3.2 8.3
2016-Dec-04 03:33N 45°37' W 085°19'713.2
2016-Dec-04 03:00N 45°30' W 085°24'511.6 120 / 81023.5 2.7 8.5
2016-Dec-04 02:34N 45°27' W 085°29'5 9.5
2016-Dec-04 02:00N 45°24' W 085°36'818.4 160 / 31023.5 3.1 8.7
2016-Dec-04 01:33N 45°16' W 085°40'5 8.4
2016-Dec-04 01:00N 45°12' W 085°42'818.8 220 / 41023.5 1.9 9.4
2016-Dec-04 00:34N 45°06' W 085°50'712.2
2016-Dec-04 00:00N 45°00' W 085°54'1414.1 270 / 181023.8 2.4 8.6
2016-Dec-03 23:00N 44°54' W 086°12'1312.7 240 / 161024.5 2.6 7.9
2016-Dec-03 22:00N 44°42' W 086°18'7 7.4 270 / 171024.8 2.1 8.7
2016-Dec-03 21:00N 44°36' W 086°24'1312.7 250 / 181025.2 2.1 9.1
2016-Dec-03 20:00N 44°24' W 086°30'1918.5 260 / 181024.8 2.3 8.8
2016-Dec-03 19:00N 44°06' W 086°36'1212.0 250 / 141024.8 2.2 7.8
2016-Dec-03 18:00N 43°54' W 086°36'1212.0 250 / 71024.2 1.8 7.3
2016-Dec-03 17:00N 43°42' W 086°36'1212.0 260 / 121024.8 1.3 7.7
2016-Dec-03 16:00N 43°30' W 086°36'1312.8 260 / 191025.5 1.4 8.2
2016-Dec-03 15:00N 43°18' W 086°30'1110.6 260 / 151025.9 1.5 8.4
2016-Dec-03 14:00N 43°12' W 086°18'0 0.0 270 / 121025.9 2.2 5.9
2016-Dec-03 13:00N 43°12' W 086°18'0 0.0 280 / 61026.2 2.3 6.5
2016-Dec-03 12:00N 43°12' W 086°18'0 0.0 280 / 61025.5 2.2 6.4
2016-Dec-03 11:00N 43°12' W 086°18'0 0.0 270 / 71025.2 2.2 6.8
2016-Dec-03 10:00N 43°12' W 086°18'0 0.0 260 / 81025.2 2.4 6.9
2016-Dec-03 09:00N 43°12' W 086°18'0 0.0 270 / 91025.2 2.3 6.8
2016-Dec-03 08:00N 43°12' W 086°18'0 0.0 300 / 91025.2 2.4 6.6
2016-Dec-03 07:00N 43°12' W 086°18'0 0.0 290 / 71025.2 2.6 6.4
2016-Dec-03 06:00N 43°12' W 086°18'4 4.4 250 / 111025.2 2.9 6.2
2016-Dec-03 05:00N 43°12' W 086°24'7 7.4 270 / 51025.2 2.9 8.8
2016-Dec-03 04:00N 43°18' W 086°30'1312.8 280 / 41024.8 2.7 8.5
2016-Dec-03 03:00N 43°30' W 086°36'1212.0 290 / 81024.5 2.8 8.2
2016-Dec-03 02:00N 43°42' W 086°36'1212.0 290 / 111023.8 3.2 7.8
2016-Dec-03 01:00N 43°54' W 086°36'1212.0 280 / 121023.5 3.1 7.4
2016-Dec-03 00:00N 44°06' W 086°36'1312.7 280 / 131022.5 3.1 8.4
2016-Dec-02 23:00N 44°18' W 086°30'1212.0 280 / 131021.8 3.3 8.8
2016-Dec-02 22:00N 44°30' W 086°30'1312.7 290 / 151021.1 3.4 9.2
2016-Dec-02 21:00N 44°42' W 086°24'1312.7 300 / 171020.4 3.4 9.0
2016-Dec-02 20:00N 44°54' W 086°18'1212.0 300 / 171019.8 2.9 8.2
2016-Dec-02 19:00N 45°06' W 086°18'1312.7 300 / 191018.8 3.0 9.1
2016-Dec-02 18:00N 45°18' W 086°12'510.4 300 / 171018.127.0 3.1 8.5
2016-Dec-02 17:30N 45°23' W 086°09'815.0
2016-Dec-02 17:00N 45°30' W 086°06'1312.7 300 / 171017.4 2.6 8.6
2016-Dec-02 16:00N 45°42' W 086°00'6 8.6 290 / 201016.4 2.4 8.3
2016-Dec-02 15:15N 45°48' W 085°57'2 7.1
2016-Dec-02 15:00N 45°48' W 085°54'1212.0 300 / 201015.0 1.8 7.4
2016-Dec-02 14:00N 46°00' W 085°54'0 0.0 280 / 61015.0 -0.0 5.1
2016-Dec-02 13:00N 46°00' W 085°54'0 0.0 280 / 71014.0 -0.4 5.2
2016-Dec-02 12:00N 46°00' W 085°54'0 0.0 290 / 91013.3 -0.4 5.3
2016-Dec-02 11:00N 46°00' W 085°54'0 0.0 280 / 121013.0 -0.3 5.4
2016-Dec-02 10:00N 46°00' W 085°54'0 0.0 270 / 121012.3 -0.3 5.4
2016-Dec-02 09:00N 46°00' W 085°54'0 0.0 270 / 101012.0 -0.1 5.6
2016-Dec-02 08:00N 46°00' W 085°54'0 0.0 250 / 91011.6 -0.5 5.5
2016-Dec-02 07:00N 46°00' W 085°54'0 0.0 260 / 151010.6 -0.4 5.9
2016-Dec-02 06:00N 46°00' W 085°54'0 0.0 260 / 101010.3 -0.5 5.8
2016-Dec-02 05:00N 46°00' W 085°54'0 0.0 270 / 91009.6 -0.3 5.9
2016-Dec-02 04:00N 46°00' W 085°54'0 0.0 270 / 91009.3 -0.4 6.0
2016-Dec-02 03:00N 46°00' W 085°54'0 0.0 260 / 81008.9 -0.1 6.0
2016-Dec-02 02:00N 46°00' W 085°54'0 0.0 260 / 81008.6 0.2 6.0
2016-Dec-02 01:00N 46°00' W 085°54'0 0.0 280 / 61008.3 0.5 6.0
2016-Dec-02 00:00N 46°00' W 085°54'4 4.5 280 / 131006.9 1.2 5.9
2016-Dec-01 23:10N 45°56' W 085°53'214.9
2016-Dec-01 23:00N 45°54' W 085°54'0 0.0 290 / 191006.2 1.6 7.0
2016-Dec-01 22:00N 45°54' W 085°54'0 0.0 300 / 191005.2 2.2 7.1
2016-Dec-01 21:00N 45°54' W 085°54'0 0.0 300 / 241003.9 2.3 7.0
2016-Dec-01 20:00N 45°54' W 085°54'0 0.0 310 / 221003.2 3.0 7.0
2016-Dec-01 19:00N 45°54' W 085°54'0 0.0 310 / 211002.2 2.9 7.1
2016-Dec-01 18:00N 45°54' W 085°54'0 0.0 320 / 261000.8 2.9 6.8
2016-Dec-01 17:00N 45°54' W 085°54'0 0.0 310 / 231000.5 3.6 6.8
2016-Dec-01 16:00N 45°54' W 085°54'7 7.3 300 / 29999.4 3.6 6.7
2016-Dec-01 15:00N 45°48' W 086°00'1010.3 300 / 30999.8 3.9 8.1
2016-Dec-01 14:00N 45°42' W 086°12'1413.9 280 / 271000.1 3.8 8.1
2016-Dec-01 13:00N 45°36' W 086°30'1010.3 280 / 241000.5 4.2 8.4
2016-Dec-01 12:00N 45°30' W 086°42'1414.0 300 / 241000.5 4.5 7.6
2016-Dec-01 11:00N 45°24' W 087°00'1010.3 290 / 231000.1 4.2 7.4
2016-Dec-01 10:00N 45°18' W 087°12'1010.4 300 / 221000.1 3.4 7.6
2016-Dec-01 09:00N 45°12' W 087°24'1312.7 270 / 21999.8 3.3 7.9
2016-Dec-01 08:00N 45°00' W 087°30'1514.7 280 / 161000.1 3.4 7.5
2016-Dec-01 07:00N 44°48' W 087°42'1010.4 280 / 161000.1 3.3 6.9
2016-Dec-01 06:00N 44°42' W 087°54'7 7.4 260 / 141000.1 2.7 5.7
2016-Dec-01 05:00N 44°36' W 088°00'6 6.0 250 / 101000.1 2.6 5.6
2016-Dec-01 04:00N 44°30' W 088°00'0 0.0 250 / 6999.8 2.5 6.0
2016-Dec-01 03:00N 44°30' W 088°00'0 0.0 220 / 51000.1 2.6 6.0
2016-Dec-01 02:00N 44°30' W 088°00'0 0.0 210 / 31000.1 3.0 6.4
2016-Dec-01 01:00N 44°30' W 088°00'0 0.0 240 / 51000.1 3.2 6.4
2016-Dec-01 00:00N 44°30' W 088°00'0 0.0 210 / 31000.1 3.4 6.2
2016-Nov-30 23:00N 44°30' W 088°00'7 7.4 220 / 51000.1 3.7 5.9
2016-Nov-30 22:00N 44°36' W 087°54'7 7.4 240 / 7999.4 4.1 5.6
2016-Nov-30 21:00N 44°42' W 087°48'1312.7 210 / 10998.8 4.5 6.1
2016-Nov-30 20:00N 44°54' W 087°42'2211.0 190 / 12998.4 4.3 7.3
2016-Nov-30 18:00N 45°12' W 087°24'1010.4 220 / 6998.4 3.9 7.9
2016-Nov-30 17:00N 45°18' W 087°12'1414.0 240 / 13998.4 5.1 7.7
2016-Nov-30 16:00N 45°24' W 086°54'1010.3 220 / 13998.8 6.1 7.4
2016-Nov-30 15:00N 45°30' W 086°42'1414.0 280 / 7998.8 6.9 7.5
2016-Nov-30 14:00N 45°36' W 086°24'1010.3 170 / 15998.8 9.1 8.5
2016-Nov-30 13:00N 45°42' W 086°12'1012.0 150 / 16998.8 9.1 8.3
2016-Nov-30 12:11N 45°49' W 086°02'2 8.7
2016-Nov-30 12:00N 45°48' W 086°00'716.7 150 / 15998.8 9.1 8.0
2016-Nov-30 11:33N 45°54' W 085°54'611.2
2016-Nov-30 11:00N 46°00' W 085°54'0 0.0 050 / 9999.8 5.6 6.0
2016-Nov-30 10:00N 46°00' W 085°54'0 0.0 050 / 41000.1 5.5 6.2
2016-Nov-30 09:00N 46°00' W 085°54'0 0.0 030 / 31000.5 5.6 6.0
2016-Nov-30 08:00N 46°00' W 085°54'2 3.2 040 / 31000.8 5.3 6.0
2016-Nov-30 07:15N 45°58' W 085°52'2 8.9
2016-Nov-30 07:00N 46°00' W 085°54'3 8.0 040 / 21001.1 4.8 6.5
2016-Nov-30 06:33N 45°57' W 085°53'4 7.4
2016-Nov-30 06:00N 45°54' W 085°48'715.2 170 / 21001.1 8.7 7.2
2016-Nov-30 05:33N 45°54' W 085°38'610.4
2016-Nov-30 05:00N 45°54' W 085°30'613.6 160 / 81001.5 8.5 7.2
2016-Nov-30 04:33N 45°53' W 085°22'711.8
2016-Nov-30 04:00N 45°54' W 085°12'613.1 150 / 81001.5 8.5 7.0
2016-Nov-30 03:33N 45°52' W 085°04'814.6
2016-Nov-30 03:00N 45°48' W 084°54'510.5 150 / 81001.5 8.1 7.0
2016-Nov-30 02:33N 45°49' W 084°48'4 7.6
2016-Nov-30 02:00N 45°48' W 084°42'716.9 150 / 81001.8 8.9 6.6
2016-Nov-30 01:33N 45°51' W 084°33'611.5
2016-Nov-30 01:00N 45°54' W 084°24'1312.5 170 / 61001.5 8.7 5.1
2016-Nov-30 00:00N 45°54' W 084°06'1010.3 200 / 101000.8 8.3 5.7
2016-Nov-29 23:00N 46°00' W 083°54'0 0.0 160 / 71000.5 8.2 5.8
2016-Nov-29 22:00N 46°00' W 083°54'0 0.0 190 / 4999.8 9.2 5.4
2016-Nov-29 21:00N 46°00' W 083°54'0 0.0 220 / 11999.1 10.5 6.2
2016-Nov-29 20:00N 46°00' W 083°54'0 0.0 210 / 16998.4 10.5 5.9
2016-Nov-29 19:00N 46°00' W 083°54'0 0.0 200 / 6997.8 10.6 6.0
2016-Nov-29 18:00N 46°00' W 083°54'0 0.0 190 / 11997.4 10.1 6.1
2016-Nov-29 17:00N 46°00' W 083°54'0 0.0 190 / 18996.4 9.3 5.9
2016-Nov-29 16:00N 46°00' W 083°54'0 0.0 170 / 14995.7 9.0 6.2
2016-Nov-29 15:00N 46°00' W 083°54'0 0.0 170 / 16995.0 8.6 6.4
2016-Nov-29 14:00N 46°00' W 083°54'0 0.0 180 / 23993.4 9.1 5.5
2016-Nov-29 13:00N 46°00' W 083°54'0 0.0 160 / 21991.7 8.5 5.0
2016-Nov-29 12:00N 46°00' W 083°54'0 0.0 150 / 17991.0 8.6 5.1
2016-Nov-29 11:00N 46°00' W 083°54'0 0.0 170 / 21989.6 8.6 5.1
2016-Nov-29 10:00N 46°00' W 083°54'0 0.0 130 / 27988.3 8.0 5.1
2016-Nov-29 09:00N 46°00' W 083°54'0 0.0 120 / 29989.0 7.3 5.0
2016-Nov-29 08:00N 46°00' W 083°54'0 0.0 110 / 33989.0 7.3 4.9
2016-Nov-29 07:00N 46°00' W 083°54'0 0.0 120 / 30991.3 7.0 5.1
2016-Nov-29 06:00N 46°00' W 083°54'0 0.0 130 / 28992.7 7.1 5.2
2016-Nov-29 05:00N 46°00' W 083°54'0 0.0 110 / 29994.7 6.6 5.2
2016-Nov-29 04:00N 46°00' W 083°54'0 0.0 120 / 26995.7 6.4 5.2
2016-Nov-29 03:00N 46°00' W 083°54'0 0.0 110 / 28997.1 6.7 5.2
2016-Nov-29 02:00N 46°00' W 083°54'0 0.0 120 / 27998.1 6.9 5.2
2016-Nov-29 01:00N 46°00' W 083°54'0 0.0 120 / 251000.1 6.8 5.2
2016-Nov-29 00:00N 46°00' W 083°54'0 0.0 120 / 241000.8 6.9 5.2
2016-Nov-28 23:00N 46°00' W 083°54'0 0.0 120 / 261001.5 7.4 5.2
2016-Nov-28 22:00N 46°00' W 083°54'0 0.0 110 / 251003.2 7.1 5.3
2016-Nov-28 21:00N 46°00' W 083°54'0 0.0 110 / 221002.8 7.3 5.3
2016-Nov-28 20:00N 46°00' W 083°54'0 0.0 120 / 201003.2 7.0 5.4
2016-Nov-28 19:00N 46°00' W 083°54'0 0.0 120 / 241003.9 7.0 5.5
2016-Nov-28 18:00N 46°00' W 083°54'0 0.0 120 / 231004.2 6.9 5.6
2016-Nov-28 17:00N 46°00' W 083°54'0 0.0 120 / 241005.2 7.5 5.7
2016-Nov-28 16:00N 46°00' W 083°54'0 0.0 120 / 211006.6 6.7 5.7
2016-Nov-28 15:00N 46°00' W 083°54'0 0.0 130 / 251006.9 6.9 5.8
2016-Nov-28 14:00N 46°00' W 083°54'0 0.0 130 / 221007.9 6.8 5.8
2016-Nov-28 13:00N 46°00' W 083°54'1010.3 120 / 221007.9 6.5 5.2
2016-Nov-28 12:00N 45°54' W 083°42'1413.9 130 / 191009.6 6.5 4.9
2016-Nov-28 11:00N 45°48' W 083°24'7 7.3 130 / 191010.3 7.0 6.2
2016-Nov-28 10:00N 45°54' W 083°18'4 4.2 130 / 261009.6 6.6 6.8
2016-Nov-28 09:00N 45°54' W 083°12'0 0.0 140 / 71011.6 6.0 6.6
2016-Nov-28 08:00N 45°54' W 083°12'0 0.0 130 / 41012.3 5.8 6.7
2016-Nov-28 07:00N 45°54' W 083°12'0 0.0 160 / 131013.0 6.1 6.6
2016-Nov-28 06:00N 45°54' W 083°12'0 0.0 140 / 111013.7 6.0 6.7
2016-Nov-28 05:00N 45°54' W 083°12'0 0.0 150 / 121014.0 6.0 6.8
2016-Nov-28 04:00N 45°54' W 083°12'0 0.0 140 / 51014.7 5.7 6.5
2016-Nov-28 03:00N 45°54' W 083°12'6 3.0 170 / 31015.0 5.6 6.5
2016-Nov-28 01:00N 46°00' W 083°12'4 4.2 100 / 111015.7 5.4 7.4
2016-Nov-28 00:00N 46°00' W 083°18'0 0.0 120 / 121015.7 5.3 7.4
2016-Nov-27 23:00N 46°00' W 083°18'0 0.0 130 / 111016.4 5.1 7.4
2016-Nov-27 22:00N 46°00' W 083°18'0 0.0 130 / 111016.4 5.8 7.4
2016-Nov-27 21:00N 46°00' W 083°18'0 0.0 120 / 91016.7 5.8 7.5
2016-Nov-27 20:00N 46°00' W 083°18'0 0.0 150 / 121016.7 5.6 7.4
2016-Nov-27 19:00N 46°00' W 083°18'0 0.0 150 / 131016.7 5.5 7.4
2016-Nov-27 18:00N 46°00' W 083°18'0 0.0 160 / 151017.1 5.5 7.4
2016-Nov-27 17:00N 46°00' W 083°18'0 0.0 150 / 151017.4 5.0 7.4
2016-Nov-27 16:00N 46°00' W 083°18'0 0.0 130 / 131018.4 4.3 7.3
2016-Nov-27 15:00N 46°00' W 083°18'7 7.3 120 / 131018.1 3.8 7.3
2016-Nov-27 14:00N 45°54' W 083°12'6 6.0 140 / 101018.4 3.2 7.4
2016-Nov-27 13:00N 45°48' W 083°12'1212.0 100 / 81018.4 4.4 6.0
2016-Nov-27 12:00N 45°36' W 083°12'1312.7 260 / 71018.4 4.4 6.5
2016-Nov-27 11:00N 45°24' W 083°06'3712.3 260 / 151018.4 4.4 6.6
2016-Nov-27 08:00N 44°48' W 082°54'1312.7 280 / 161019.1 4.8 7.1
2016-Nov-27 07:00N 44°36' W 082°48'1312.7 270 / 251019.1 4.2 7.7
2016-Nov-27 06:00N 44°24' W 082°42'2412.2 270 / 241019.8 3.9 7.5
2016-Nov-27 04:00N 44°00' W 082°36'1312.8 250 / 201020.4 3.8 7.4
2016-Nov-27 03:00N 43°48' W 082°30'6 6.0 270 / 201020.4 3.2 7.5
2016-Nov-27 02:00N 43°42' W 082°30'1212.0 270 / 221020.8 3.3 8.0
2016-Nov-27 01:00N 43°30' W 082°30'1312.8 270 / 221020.8 3.4 7.9
2016-Nov-27 00:00N 43°18' W 082°24'1212.0 260 / 251021.1 3.8 8.2
2016-Nov-26 23:00N 43°06' W 082°24'1312.8 260 / 151022.1 3.8 8.1
2016-Nov-26 22:00N 42°54' W 082°30'6 6.0 270 / 121022.8 4.1 7.9
2016-Nov-26 21:00N 42°48' W 082°30'1212.0 270 / 111022.8 4.7 7.7
2016-Nov-26 20:00N 42°36' W 082°30'1110.7 310 / 91022.8 5.0 7.4
2016-Nov-26 19:00N 42°30' W 082°42'1110.7 300 / 131022.6 4.8 7.0
2016-Nov-26 18:00N 42°24' W 082°54'1110.7 310 / 151023.3 4.7 6.0
2016-Nov-26 17:00N 42°18' W 083°06'0 0.0 310 / 161024.0 4.5 5.4
2016-Nov-26 16:00N 42°18' W 083°06'0 0.0 300 / 91024.7 4.6 11.0
2016-Nov-26 15:00N 42°18' W 083°06'4 4.4 280 / 101024.7 4.9 11.1
2016-Nov-26 14:00N 42°18' W 083°12'0 0.0 300 / 101024.3 4.4 10.9
2016-Nov-26 13:00N 42°18' W 083°12'0 0.0 280 / 101024.3 3.9 12.2
2016-Nov-26 12:00N 42°18' W 083°12'0 0.0 250 / 91024.0 3.9 11.7
2016-Nov-26 11:00N 42°18' W 083°12'0 0.0 260 / 101023.6 3.9 10.1
2016-Nov-26 10:00N 42°18' W 083°12'0 0.0 260 / 61024.0 3.9 9.5
2016-Nov-26 09:00N 42°18' W 083°12'4 4.4 300 / 81023.6 4.5 10.7
2016-Nov-26 08:00N 42°18' W 083°06'4 4.4 240 / 81023.3 4.1 6.6
2016-Nov-26 07:00N 42°18' W 083°00'1110.7 240 / 141022.6 4.3 5.3
2016-Nov-26 06:00N 42°24' W 082°48'1110.7 250 / 141021.9 4.3 6.2
2016-Nov-26 05:00N 42°30' W 082°36'7 7.5 250 / 131021.9 4.4 7.3
2016-Nov-26 04:00N 42°36' W 082°30'1212.0 230 / 41022.8 3.7 8.0
2016-Nov-26 03:00N 42°48' W 082°30'1312.8 230 / 41023.2 3.5 7.9
2016-Nov-26 02:00N 43°00' W 082°24'6 6.0 240 / 41023.2 3.2 7.8
2016-Nov-26 01:00N 43°06' W 082°24'1212.0 260 / 141022.8 4.1 8.4
2016-Nov-26 00:00N 43°18' W 082°24'1212.0 260 / 151022.1 4.6 8.6
2016-Nov-25 23:00N 43°30' W 082°24'1312.8 240 / 161021.5 5.4 8.3
2016-Nov-25 22:00N 43°42' W 082°30'1212.0 250 / 121021.1 5.7 8.3
2016-Nov-25 21:00N 43°54' W 082°30'1312.8 250 / 141021.1 5.7 7.8
2016-Nov-25 20:00N 44°06' W 082°36'1312.7 250 / 151020.8 5.6 7.9
2016-Nov-25 19:00N 44°18' W 082°42'7 7.4 260 / 111021.1 5.4 7.5
2016-Nov-25 18:00N 44°24' W 082°48'6 6.0 270 / 131020.8 5.1 7.3
2016-Nov-25 17:00N 44°30' W 082°48'0 0.0 260 / 141021.1 5.0 7.3
2016-Nov-25 16:00N 44°30' W 082°48'6 6.0 290 / 121021.8 5.1 7.3
2016-Nov-25 15:00N 44°36' W 082°48'1312.7 300 / 141021.5 5.3 7.3
2016-Nov-25 14:00N 44°48' W 082°54'1312.7 330 / 121021.1 5.3 7.2
2016-Nov-25 13:00N 45°00' W 083°00'1312.7 350 / 131020.8 4.6 8.1
2016-Nov-25 12:00N 45°12' W 083°06'1514.7 360 / 141020.4 4.4 7.3
2016-Nov-25 11:00N 45°24' W 083°18'1514.7 350 / 121020.4 3.9 7.6
2016-Nov-25 10:00N 45°36' W 083°30'1010.3 010 / 91020.4 3.6 6.2
2016-Nov-25 09:00N 45°42' W 083°42'1312.7 020 / 101020.4 3.1 6.3
2016-Nov-25 08:00N 45°54' W 083°48'7 7.3 040 / 131020.4 2.2 4.9
2016-Nov-25 07:00N 46°00' W 083°54'1514.6 050 / 111020.8 2.3 4.2
2016-Nov-25 06:00N 46°12' W 084°06'7 7.3 030 / 51020.8 0.9 4.7
2016-Nov-25 05:00N 46°18' W 084°12'6 6.0 030 / 31021.5 0.6 5.2
2016-Nov-25 04:00N 46°24' W 084°12'7 7.3 080 / 51021.5 1.0 6.0
2016-Nov-25 03:00N 46°30' W 084°18'   060 / 71021.1 1.0 6.0

Dump ship's entire track history